Domov               UVHVVR             MKGP            O straneh              
ZDRAVSTVENO VARSTVO RASTLIN
  MREŽA AGROMET. POSTAJ
 ► PROGNOSTIČNA OBVESTILA
AGROMETEOROLOŠKI PODATKI -
ARSO
OBVLADOVANJE TVEGANJ ZARADI
NEUGODNIH VREMENSKIH RAZMER
  ► NARAVNE NESREČE
  ► SUŠA/MOČA
  ► NAMAKANJE
  ► ŽLED (gozdarstvo)
KARTOGRAFSKI PRIKAZI
SPLETNE POVEZAVE
PROJEKTI IN PUBLIKACIJE

AGROMETEOROLOŠKA MREŽA: VREMENSKE POSTAJE IN FENOLOŠKA OPAZOVANJA

Pregled podatkov za lokacijo Višnjevik, meteorološka postaja 857246

Pregled senzorjev na lokaciji

ID Ime Zadnja
vrednost
Datum
zadnje
spremembe
Tip
senzorja
3904 Omočenost lista (U) 0 U 19.7.2018 22:15 A730WET
3906 Padavine (mm) 0 mm 19.7.2018 22:15 Rain-O-Matic
3903 Relativna vlaga 2 m (% RH) 64,5 % RH 19.7.2018 22:15 50YA
3902 Temperatura 2 m (°C) 23,02 °C 19.7.2018 22:15 50YA

Pregled podatkov zadnjih 24 ur

Zap.
št.
Datum in čas Višnjevik
Omočenost
lista
Padavine Relativna
vlaga
2
m
Temperatura
2
m
1 19.7.2018 23:30
2 19.7.2018 23:00
3 19.7.2018 22:30
4 19.7.2018 22:00
5 19.7.2018 21:30 0 0 64,5 23
6 19.7.2018 21:00 0 0 62,8 23,5
7 19.7.2018 20:30 0 0 61,4 23,9
8 19.7.2018 20:00 0 0 57,4 25,2
9 19.7.2018 19:30 0 0 51,1 26,9
10 19.7.2018 19:00 0 0 47,3 29,2
11 19.7.2018 18:30 0 0 40,4 32,3
12 19.7.2018 18:00 0 0 40 32,4
13 19.7.2018 17:30 0 0 38,4 33,5
14 19.7.2018 17:00 0 0 36,9 33,2
15 19.7.2018 16:30 0 0 36,9 33,3
16 19.7.2018 16:00 0 0 38,9 33,4
17 19.7.2018 15:30 0 0 37,3 33,8
18 19.7.2018 15:00 0 0 36,6 34,7
19 19.7.2018 14:30 0 0 38,6 34
20 19.7.2018 14:00 0 0 40,3 32,7
21 19.7.2018 13:30 0 0 40,6 32,4
22 19.7.2018 13:00 0 0 41,3 32,4
23 19.7.2018 12:30 0 0 42,1 32,1
24 19.7.2018 12:00 0 0 42,7 32
25 19.7.2018 11:30 0 0 44,9 31,6
26 19.7.2018 11:00 0 0 45,9 31,5
27 19.7.2018 10:30 0 0 44,4 32,3
28 19.7.2018 10:00 0 0 44,1 32,2
29 19.7.2018 09:30 0 0 47 30,9
30 19.7.2018 09:00 0 0 47,4 29,5
31 19.7.2018 08:30 0 0 52,6 27,1
32 19.7.2018 08:00 0 0 56,6 26
33 19.7.2018 07:30 0 0 57,2 25
34 19.7.2018 07:00 0 0 61 23,3
35 19.7.2018 06:30 0 0 65,9 21,8
36 19.7.2018 06:00 0 0 73,1 20,2
37 19.7.2018 05:30 0 0 76 19,4
38 19.7.2018 05:00 0 0 79,5 19,1
39 19.7.2018 04:30 0 0 79,2 19,2
40 19.7.2018 04:00 0 0 79,8 19,3
41 19.7.2018 03:30 0 0 77,9 19,8
42 19.7.2018 03:00 0 0 76 20,2
43 19.7.2018 02:30 0 0 77,2 20,3
44 19.7.2018 02:00 0 0 72,9 21,2
45 19.7.2018 01:30 0 0 72,6 21,4
46 19.7.2018 01:00 0 0 73,6 21,7
47 19.7.2018 00:30 0 0 77,2 21,5
48 19.7.2018 00:00 0 0 77,9 21,6
© 2011 Ministrstvo za kmetijstvo, gozdarstvo in prehrano. Vse pravice pridržane.